Time;durP1;ratioP1;P1;durP2;ratioP2;P2;SDS_P1;SDS_P2;PMS_P1;PMS_P2;Temp;Humidity;BMP_temperature;BMP_pressure;BME280_temperature;BME280_humidity;BME280_pressure;Samples;Min_cycle;Max_cycle;Signal;HPM_P1;HPM_P2
2023/11/20 00:00:52;;;;;;;6.82;1.30;;;;;;;8.83;100.00;97713.88;6094512;19;20025;-76
2023/11/20 00:02:52;;;;;;;5.22;1.48;;;;;;;8.88;100.00;97718.25;6094259;19;20019;-75
2023/11/20 00:04:52;;;;;;;6.47;1.42;;;;;;;8.86;100.00;97718.63;6094126;19;20050;-75
2023/11/20 00:06:53;;;;;;;4.60;1.75;;;;;;;8.78;100.00;97725.28;6092697;19;20040;-76
2023/11/20 00:08:53;;;;;;;7.18;1.45;;;;;;;8.72;100.00;97713.81;6093671;19;20322;-76
2023/11/20 00:10:54;;;;;;;7.93;2.22;;;;;;;8.74;100.00;97727.22;6094299;19;20026;-76
2023/11/20 00:12:54;;;;;;;7.88;1.70;;;;;;;8.81;100.00;97724.50;6094238;19;20024;-76
2023/11/20 00:14:54;;;;;;;5.13;1.50;;;;;;;8.81;100.00;97716.22;6094379;19;20011;-76
2023/11/20 00:16:55;;;;;;;3.25;1.20;;;;;;;8.84;100.00;97714.66;6092676;19;20076;-75
2023/11/20 00:18:55;;;;;;;3.90;1.58;;;;;;;8.85;100.00;97713.47;6091785;19;20102;-76
2023/11/20 00:20:55;;;;;;;4.93;1.73;;;;;;;8.88;100.00;97708.00;6094402;19;20042;-76
2023/11/20 00:22:56;;;;;;;1.63;0.98;;;;;;;8.80;100.00;97716.63;6093245;19;20463;-76
2023/11/20 00:24:56;;;;;;;3.38;1.33;;;;;;;8.78;100.00;97705.97;6095182;19;20010;-76
2023/11/20 00:26:56;;;;;;;3.83;1.30;;;;;;;8.76;100.00;97700.03;6091255;19;20040;-76
2023/11/20 00:28:58;;;;;;;3.42;1.05;;;;;;;8.77;100.00;97709.09;6100900;19;20341;-76
2023/11/20 00:30:59;;;;;;;6.72;1.60;;;;;;;8.80;100.00;97702.84;6102539;19;20221;-76
2023/11/20 00:33:00;;;;;;;2.55;1.42;;;;;;;8.90;100.00;97699.34;6102539;19;20019;-75
2023/11/20 00:35:00;;;;;;;3.08;1.25;;;;;;;8.87;100.00;97709.19;6102045;19;20297;-76
2023/11/20 00:37:01;;;;;;;2.25;1.23;;;;;;;8.91;100.00;97698.94;6100473;19;20003;-75
2023/11/20 00:39:01;;;;;;;3.33;1.40;;;;;;;8.88;100.00;97696.19;6103413;19;20057;-75
2023/11/20 00:41:02;;;;;;;3.70;1.60;;;;;;;8.87;100.00;97695.41;6101560;19;20006;-75
2023/11/20 00:43:03;;;;;;;4.25;1.38;;;;;;;8.87;100.00;97692.63;6101705;19;20030;-76
2023/11/20 00:45:03;;;;;;;6.15;1.60;;;;;;;8.85;100.00;97689.44;6102400;19;20345;-76
2023/11/20 00:47:04;;;;;;;3.67;1.13;;;;;;;8.88;100.00;97685.16;6100821;19;20693;-75
2023/11/20 00:49:05;;;;;;;3.92;1.23;;;;;;;8.88;100.00;97682.38;6101461;19;20003;-76
2023/11/20 00:51:05;;;;;;;5.68;1.42;;;;;;;8.91;100.00;97690.66;6102117;19;20010;-76
2023/11/20 00:53:06;;;;;;;3.90;1.83;;;;;;;8.90;100.00;97697.38;6101843;19;20509;-76
2023/11/20 00:55:10;;;;;;;7.03;1.30;;;;;;;8.95;100.00;97694.25;6102228;19;20014;-76
2023/11/20 00:57:10;;;;;;;5.07;1.55;;;;;;;9.01;100.00;97686.38;6099392;19;20006;-76
2023/11/20 00:59:10;;;;;;;6.85;1.75;;;;;;;8.97;100.00;97680.06;6101548;19;20403;-76
2023/11/20 01:01:11;;;;;;;5.22;1.90;;;;;;;8.94;100.00;97673.38;6102134;19;20003;-75
2023/11/20 01:03:11;;;;;;;4.88;1.42;;;;;;;9.03;100.00;97694.28;6101427;19;20041;-76
2023/11/20 01:05:11;;;;;;;1.88;1.08;;;;;;;9.05;100.00;97686.41;6100845;19;20110;-76
2023/11/20 01:07:12;;;;;;;3.97;1.40;;;;;;;9.14;100.00;97695.91;6100814;19;20042;-75
2023/11/20 01:09:12;;;;;;;6.38;1.50;;;;;;;9.23;100.00;97688.06;6101671;19;20313;-75
2023/11/20 01:11:13;;;;;;;4.10;1.52;;;;;;;9.26;100.00;97695.56;6100653;19;20014;-75
2023/11/20 01:13:13;;;;;;;3.33;1.38;;;;;;;9.25;100.00;97704.22;6101371;19;20090;-76
2023/11/20 01:15:14;;;;;;;7.05;1.50;;;;;;;9.33;100.00;97703.09;6100720;19;20363;-75
2023/11/20 01:17:16;;;;;;;4.82;1.30;;;;;;;9.33;100.00;97692.03;6099362;19;20553;-75
2023/11/20 01:19:17;;;;;;;4.80;1.95;;;;;;;9.39;100.00;97692.47;6099264;19;20328;-75
2023/11/20 01:21:17;;;;;;;6.57;1.58;;;;;;;9.42;100.00;97705.47;6101404;19;20049;-75
2023/11/20 01:23:18;;;;;;;6.00;1.45;;;;;;;9.41;100.00;97695.63;6099534;19;20103;-76
2023/11/20 01:25:18;;;;;;;6.45;1.38;;;;;;;9.34;100.00;97681.78;6100462;19;20023;-76
2023/11/20 01:27:18;;;;;;;8.50;1.60;;;;;;;9.35;100.00;97692.47;6099549;19;20009;-76
2023/11/20 01:29:20;;;;;;;9.10;1.67;;;;;;;9.41;100.00;97690.09;6102110;19;20047;-75
2023/11/20 01:31:20;;;;;;;4.80;1.30;;;;;;;9.41;100.00;97687.34;6107354;19;20013;-76
2023/11/20 01:33:20;;;;;;;3.72;1.20;;;;;;;9.41;100.00;97677.09;6107015;19;20452;-75
2023/11/20 01:35:21;;;;;;;3.08;1.10;;;;;;;9.43;100.00;97683.03;6107286;19;20041;-76
2023/11/20 01:37:21;;;;;;;11.90;1.63;;;;;;;9.44;100.00;97683.81;6105312;19;20314;-75
2023/11/20 01:39:21;;;;;;;5.95;1.50;;;;;;;9.37;100.00;97692.88;6105024;19;20482;-76
2023/11/20 01:41:22;;;;;;;4.13;1.50;;;;;;;9.42;100.00;97686.16;6106810;19;20078;-76
2023/11/20 01:43:22;;;;;;;3.35;1.65;;;;;;;9.36;100.00;97683.00;6106751;19;20007;-75
2023/11/20 01:45:22;;;;;;;5.53;1.70;;;;;;;9.33;100.00;97677.44;6106979;19;20010;-76
2023/11/20 01:47:23;;;;;;;5.25;1.30;;;;;;;9.31;100.00;97674.28;6104669;19;20701;-76
2023/11/20 01:49:24;;;;;;;5.70;1.52;;;;;;;9.27;100.00;97682.56;6106021;19;20468;-76
2023/11/20 01:51:31;;;;;;;2.75;1.40;;;;;;;9.26;100.00;97680.97;6105946;19;20010;-76
2023/11/20 01:53:35;;;;;;;6.60;1.52;;;;;;;9.29;100.00;97691.25;6105947;19;20026;-75
2023/11/20 01:55:35;;;;;;;5.95;1.33;;;;;;;9.33;100.00;97686.53;6105924;19;20375;-75
2023/11/20 01:57:39;;;;;;;4.47;1.55;;;;;;;9.31;100.00;97694.41;6105768;19;20006;-76
2023/11/20 01:59:39;;;;;;;5.57;1.33;;;;;;;9.35;100.00;97694.41;6105993;19;20014;-76
2023/11/20 02:01:40;;;;;;;4.95;1.55;;;;;;;9.37;100.00;97687.34;6103931;19;20466;-75
2023/11/20 02:03:40;;;;;;;3.47;1.42;;;;;;;9.37;100.00;97695.63;6105688;19;20030;-75
2023/11/20 02:05:41;;;;;;;3.58;1.20;;;;;;;9.36;100.00;97688.53;6106342;19;20011;-76
2023/11/20 02:07:42;;;;;;;4.75;1.65;;;;;;;9.32;100.00;97684.94;6104415;19;20021;-76
2023/11/20 02:09:43;;;;;;;6.85;1.77;;;;;;;9.26;100.00;97697.53;6105435;19;20011;-76
2023/11/20 02:11:45;;;;;;;2.67;1.05;;;;;;;9.27;100.00;97696.38;6104457;19;20089;-75
2023/11/20 02:13:46;;;;;;;6.72;2.05;;;;;;;9.19;100.00;97690.03;6105009;19;20415;-76
2023/11/20 02:15:46;;;;;;;7.78;2.10;;;;;;;9.18;100.00;97701.44;6103898;19;20010;-76
2023/11/20 02:17:46;;;;;;;5.50;1.27;;;;;;;9.16;100.00;97699.06;6102923;19;20334;-76
2023/11/20 02:19:47;;;;;;;4.90;1.20;;;;;;;9.15;100.00;97700.25;6105277;19;20010;-76
2023/11/20 02:21:48;;;;;;;1.10;0.80;;;;;;;9.19;100.00;97700.28;6104227;19;20014;-76
2023/11/20 02:23:48;;;;;;;3.15;1.00;;;;;;;9.16;100.00;97696.31;6103408;19;20491;-76
2023/11/20 02:25:54;;;;;;;1.95;0.95;;;;;;;9.15;100.00;97696.72;6103103;19;20011;-76
2023/11/20 02:28:07;;;;;;;3.85;1.17;;;;;;;9.11;100.00;97704.97;6103629;19;20386;-76
2023/11/20 02:30:08;;;;;;;2.67;1.23;;;;;;;9.10;100.00;97700.66;6104955;19;20014;-76
2023/11/20 02:32:08;;;;;;;5.22;1.30;;;;;;;9.18;100.00;97693.94;6105381;19;20014;-76
2023/11/20 02:34:09;;;;;;;3.00;1.00;;;;;;;9.15;100.00;97693.94;6104127;19;20007;-76
2023/11/20 02:36:10;;;;;;;5.32;1.50;;;;;;;9.14;100.00;97690.41;6104961;19;20015;-76
2023/11/20 02:38:10;;;;;;;5.72;1.60;;;;;;;9.19;100.00;97694.78;6102814;19;20021;-76
2023/11/20 02:40:11;;;;;;;3.08;1.27;;;;;;;9.12;100.00;97686.44;6103597;19;19999;-76
2023/11/20 02:42:11;;;;;;;2.80;1.00;;;;;;;9.19;100.00;97683.72;6102866;19;20007;-76
2023/11/20 02:44:12;;;;;;;4.90;1.98;;;;;;;9.25;100.00;97695.94;6103452;19;19995;-76
2023/11/20 02:46:12;;;;;;;3.17;1.10;;;;;;;9.18;100.00;97685.66;6104288;19;20003;-76
2023/11/20 02:48:12;;;;;;;3.28;1.30;;;;;;;9.17;100.00;97697.09;6102390;19;20463;-76
2023/11/20 02:50:13;;;;;;;6.15;1.10;;;;;;;9.16;100.00;97695.53;6104013;19;20002;-76
2023/11/20 02:52:15;;;;;;;2.08;1.08;;;;;;;9.15;100.00;97686.47;6105046;19;20094;-76
2023/11/20 02:54:15;;;;;;;6.55;1.00;;;;;;;9.13;100.00;97699.84;6103761;19;20010;-76
2023/11/20 02:56:16;;;;;;;1.85;1.05;;;;;;;9.16;100.00;97696.31;6102528;19;19999;-76
2023/11/20 02:58:17;;;;;;;2.50;0.90;;;;;;;9.17;100.00;97694.34;6103058;19;20026;-76
2023/11/20 03:00:17;;;;;;;4.05;0.90;;;;;;;9.14;100.00;97695.13;6104860;19;20009;-76
2023/11/20 03:02:19;;;;;;;5.10;1.52;;;;;;;9.14;100.00;97693.16;6104186;19;19999;-76
2023/11/20 03:04:19;;;;;;;3.95;1.30;;;;;;;9.18;100.00;97682.91;6104518;19;20078;-76
2023/11/20 03:06:20;;;;;;;1.98;0.93;;;;;;;9.18;100.00;97682.91;6103458;19;19995;-76
2023/11/20 03:08:22;;;;;;;3.03;0.80;;;;;;;9.16;100.00;97679.75;6102772;19;20014;-76
2023/11/20 03:10:22;;;;;;;2.03;0.90;;;;;;;9.09;100.00;97681.69;6104627;19;20014;-76
2023/11/20 03:12:23;;;;;;;1.92;0.75;;;;;;;9.07;100.00;97701.41;6103502;19;19999;-76
2023/11/20 03:14:23;;;;;;;1.58;0.90;;;;;;;9.05;100.00;97697.44;6103530;19;20810;-76
2023/11/20 03:16:24;;;;;;;1.00;0.80;;;;;;;9.04;100.00;97685.63;6103098;19;20005;-76
2023/11/20 03:18:24;;;;;;;0.80;0.77;;;;;;;9.09;100.00;97688.00;6102413;19;20006;-76
2023/11/20 03:20:24;;;;;;;2.65;0.70;;;;;;;9.16;100.00;97693.56;6103907;19;20034;-76
2023/11/20 03:22:25;;;;;;;0.70;0.57;;;;;;;9.11;100.00;97685.66;6103198;19;20245;-76
2023/11/20 03:24:25;;;;;;;1.60;0.70;;;;;;;9.07;100.00;97686.81;6103041;19;20007;-76
2023/11/20 03:26:26;;;;;;;2.17;0.80;;;;;;;9.15;100.00;97691.19;6102961;19;20089;-76
2023/11/20 03:28:26;;;;;;;2.67;0.68;;;;;;;9.12;100.00;97684.47;6094174;19;20055;-76
2023/11/20 03:30:27;;;;;;;2.55;0.90;;;;;;;9.14;100.00;97684.09;6102118;19;21105;-76
2023/11/20 03:32:27;;;;;;;1.83;0.80;;;;;;;9.15;100.00;97689.22;6103075;19;20545;-76
2023/11/20 03:34:28;;;;;;;3.88;0.80;;;;;;;9.16;100.00;97688.03;6103144;19;20032;-76
2023/11/20 03:36:30;;;;;;;3.45;0.75;;;;;;;9.15;100.00;97685.66;6101402;19;20538;-76
2023/11/20 03:38:30;;;;;;;1.95;0.90;;;;;;;9.23;100.00;97690.03;6103168;19;20054;-76
2023/11/20 03:40:30;;;;;;;2.53;0.90;;;;;;;9.17;100.00;97684.09;6103543;19;20010;-75
2023/11/20 03:42:31;;;;;;;2.65;0.80;;;;;;;9.17;100.00;97692.38;6100373;19;20377;-76
2023/11/20 03:44:31;;;;;;;3.63;1.30;;;;;;;9.26;100.00;97692.00;6101157;19;20270;-76
2023/11/20 03:46:32;;;;;;;4.03;1.02;;;;;;;9.20;100.00;97688.84;6100887;19;20013;-76
2023/11/20 03:48:32;;;;;;;4.07;0.75;;;;;;;9.19;100.00;97681.75;6101909;19;20013;-76
2023/11/20 03:50:33;;;;;;;2.13;1.13;;;;;;;9.19;100.00;97695.56;6102849;19;20020;-76
2023/11/20 03:52:33;;;;;;;1.00;0.70;;;;;;;9.29;100.00;97680.22;6101170;19;20010;-75
2023/11/20 03:54:34;;;;;;;1.95;0.85;;;;;;;9.30;100.00;97681.78;6100773;19;20094;-76
2023/11/20 03:56:34;;;;;;;1.90;0.80;;;;;;;9.27;100.00;97688.88;6101223;19;20003;-75
2023/11/20 03:58:34;;;;;;;3.95;0.90;;;;;;;9.24;100.00;97694.38;6100130;19;20002;-76
2023/11/20 04:00:35;;;;;;;2.58;0.80;;;;;;;9.32;100.00;97687.72;6102578;19;20402;-76
2023/11/20 04:02:36;;;;;;;2.13;0.80;;;;;;;9.34;100.00;97690.88;6102035;19;20339;-76
2023/11/20 04:04:36;;;;;;;4.15;1.10;;;;;;;9.27;100.00;97674.28;6101645;19;19999;-76
2023/11/20 04:06:36;;;;;;;1.13;0.63;;;;;;;9.24;100.00;97673.09;6100510;19;20082;-75
2023/11/20 04:08:37;;;;;;;2.40;0.80;;;;;;;9.27;100.00;97679.81;6102377;19;20086;-75
2023/11/20 04:10:38;;;;;;;3.50;1.15;;;;;;;9.26;100.00;97667.16;6102488;19;20012;-76
2023/11/20 04:12:38;;;;;;;1.60;1.00;;;;;;;9.24;100.00;97675.06;6101307;19;20007;-76
2023/11/20 04:14:39;;;;;;;2.08;0.65;;;;;;;9.28;100.00;97679.44;6102108;19;20013;-76
2023/11/20 04:16:39;;;;;;;2.80;0.93;;;;;;;9.39;100.00;97684.19;6100641;19;20115;-76
2023/11/20 04:18:39;;;;;;;1.27;0.70;;;;;;;9.35;100.00;97684.19;6101432;19;20011;-75
2023/11/20 04:20:40;;;;;;;1.67;0.90;;;;;;;9.32;100.00;97681.41;6102262;19;20007;-75
2023/11/20 04:22:40;;;;;;;4.40;0.85;;;;;;;9.31;100.00;97686.13;6099279;19;20173;-76
2023/11/20 04:24:40;;;;;;;3.72;0.60;;;;;;;9.29;100.00;97692.03;6101386;19;20009;-76
2023/11/20 04:26:41;;;;;;;1.58;0.60;;;;;;;9.30;100.00;97684.56;6100100;19;20002;-75
2023/11/20 04:28:41;;;;;;;5.07;1.02;;;;;;;9.25;100.00;97684.91;6091629;19;20014;-76
2023/11/20 04:30:42;;;;;;;1.65;0.80;;;;;;;9.19;100.00;97692.78;6092777;19;20673;-76
2023/11/20 04:32:42;;;;;;;2.30;0.77;;;;;;;9.18;100.00;97693.94;6092364;19;20335;-76
2023/11/20 04:34:42;;;;;;;1.08;0.82;;;;;;;9.13;100.00;97688.81;6091748;19;20467;-75
2023/11/20 04:36:42;;;;;;;2.22;0.80;;;;;;;9.11;100.00;97682.13;6091630;19;20010;-76
2023/11/20 04:38:43;;;;;;;1.50;0.60;;;;;;;9.12;100.00;97678.19;6092289;19;20002;-76
2023/11/20 04:40:43;;;;;;;1.65;0.60;;;;;;;9.18;100.00;97684.88;6092481;19;20479;-76
2023/11/20 04:42:44;;;;;;;2.55;1.25;;;;;;;9.13;100.00;97677.78;6091963;19;20010;-76
2023/11/20 04:44:44;;;;;;;2.50;0.68;;;;;;;9.23;100.00;97687.28;6092814;19;20509;-76
2023/11/20 04:46:45;;;;;;;2.45;0.60;;;;;;;9.24;100.00;97677.81;6091428;19;20690;-75
2023/11/20 04:48:45;;;;;;;0.88;0.70;;;;;;;9.30;100.00;97679.03;6092239;19;20362;-76
2023/11/20 04:50:45;;;;;;;1.00;0.70;;;;;;;9.32;100.00;97675.88;6091552;19;20349;-75
2023/11/20 04:52:46;;;;;;;0.77;0.70;;;;;;;9.37;100.00;97661.72;6091855;19;20466;-75
2023/11/20 04:54:47;;;;;;;0.57;0.55;;;;;;;9.32;100.00;97662.88;6092535;19;20554;-76
2023/11/20 04:56:48;;;;;;;1.30;0.73;;;;;;;9.39;100.00;97665.66;6091306;19;20023;-75
2023/11/20 04:58:48;;;;;;;1.63;0.80;;;;;;;9.35;100.00;97669.56;6092247;19;20298;-75
2023/11/20 05:00:49;;;;;;;2.35;0.75;;;;;;;9.36;100.00;97666.44;6089063;19;20003;-75
2023/11/20 05:02:49;;;;;;;2.30;0.70;;;;;;;9.41;100.00;97666.03;6089518;19;20003;-75
2023/11/20 05:04:50;;;;;;;1.55;0.80;;;;;;;9.36;100.00;97660.13;6086155;19;20044;-75
2023/11/20 05:06:50;;;;;;;0.82;0.70;;;;;;;9.33;100.00;97658.91;6091357;19;20249;-75
2023/11/20 05:08:50;;;;;;;0.80;0.68;;;;;;;9.32;100.00;97654.59;6091103;19;20360;-75
2023/11/20 05:10:51;;;;;;;0.90;0.70;;;;;;;9.30;100.00;97654.19;6092019;19;20470;-76
2023/11/20 05:12:53;;;;;;;6.72;1.02;;;;;;;9.33;100.00;97647.88;6091003;19;20327;-75
2023/11/20 05:14:53;;;;;;;6.65;1.17;;;;;;;9.34;100.00;97670.75;6089370;19;20010;-75
2023/11/20 05:16:53;;;;;;;3.55;0.80;;;;;;;9.34;100.00;97659.72;6088082;19;20006;-75
2023/11/20 05:18:55;;;;;;;4.70;1.25;;;;;;;9.34;100.00;97665.22;6090440;19;20226;-75
2023/11/20 05:20:55;;;;;;;3.25;1.38;;;;;;;9.37;100.00;97670.00;6090962;19;20003;-75
2023/11/20 05:22:55;;;;;;;1.77;0.77;;;;;;;9.37;100.00;97670.78;6090398;19;20099;-75
2023/11/20 05:24:56;;;;;;;4.43;0.80;;;;;;;9.40;100.00;97675.50;6088806;19;20780;-75
2023/11/20 05:26:56;;;;;;;2.60;0.70;;;;;;;9.33;100.00;97675.47;6088944;19;20770;-75
2023/11/20 05:28:57;;;;;;;1.20;0.70;;;;;;;9.26;100.00;97678.22;6096864;19;20021;-75
2023/11/20 05:30:57;;;;;;;2.15;0.70;;;;;;;9.29;100.00;97667.19;6098769;19;20324;-75
2023/11/20 05:32:57;;;;;;;0.88;0.68;;;;;;;9.32;100.00;97681.41;6098090;19;20017;-75
2023/11/20 05:34:57;;;;;;;2.15;0.70;;;;;;;9.40;100.00;97675.50;6099676;19;20002;-76
2023/11/20 05:36:58;;;;;;;1.27;0.73;;;;;;;9.33;100.00;97667.19;6098129;19;20010;-75
2023/11/20 05:38:58;;;;;;;1.77;0.80;;;;;;;9.31;100.00;97655.75;6098631;19;19998;-75
2023/11/20 05:40:59;;;;;;;3.63;0.90;;;;;;;9.29;100.00;97661.69;6099414;19;20032;-75
2023/11/20 05:42:59;;;;;;;1.67;0.70;;;;;;;9.25;100.00;97649.81;6098513;19;20010;-75
2023/11/20 05:44:59;;;;;;;2.78;0.90;;;;;;;9.26;100.00;97654.16;6099223;19;20002;-75
2023/11/20 05:47:00;;;;;;;2.45;0.65;;;;;;;9.35;100.00;97655.75;6095760;19;20333;-76
2023/11/20 05:49:01;;;;;;;1.85;1.02;;;;;;;9.36;100.00;97660.13;6096243;19;20010;-75
2023/11/20 05:51:01;;;;;;;1.38;0.70;;;;;;;9.32;100.00;97660.09;6091156;19;20038;-75
2023/11/20 05:53:03;;;;;;;3.55;1.40;;;;;;;9.29;100.00;97660.88;6092714;19;20006;-75
2023/11/20 05:55:04;;;;;;;2.63;1.00;;;;;;;9.37;100.00;97678.28;6098435;19;20360;-75
2023/11/20 05:57:05;;;;;;;2.58;1.10;;;;;;;9.43;100.00;97671.16;6096690;19;20027;-74
2023/11/20 05:59:08;;;;;;;3.45;1.00;;;;;;;9.44;100.00;97676.31;6097241;19;20250;-75
2023/11/20 06:01:09;;;;;;;5.30;0.95;;;;;;;9.43;100.00;97685.78;6098975;19;20352;-75
2023/11/20 06:03:09;;;;;;;2.05;0.98;;;;;;;9.47;100.00;97681.06;6097814;19;20335;-75
2023/11/20 06:05:10;;;;;;;5.93;2.15;;;;;;;9.46;100.00;97696.03;6097348;19;20365;-75
2023/11/20 06:07:11;;;;;;;3.03;0.90;;;;;;;9.42;100.00;97692.47;6096056;19;20011;-75
2023/11/20 06:09:12;;;;;;;3.50;1.63;;;;;;;9.47;100.00;97697.63;6097624;19;20049;-75
2023/11/20 06:11:20;;;;;;;5.50;1.20;;;;;;;9.45;100.00;97700.00;6098682;19;20557;-76
2023/11/20 06:13:20;;;;;;;6.00;1.58;;;;;;;9.45;100.00;97700.00;6097918;19;20003;-75
2023/11/20 06:15:21;;;;;;;2.28;1.30;;;;;;;9.49;100.00;97697.22;6100093;19;20010;-75
2023/11/20 06:17:21;;;;;;;2.67;1.15;;;;;;;9.46;100.00;97700.78;6101567;19;20424;-75
2023/11/20 06:19:26;;;;;;;2.95;0.82;;;;;;;9.43;100.00;97701.53;6105109;19;20006;-75
2023/11/20 06:21:26;;;;;;;2.05;1.10;;;;;;;9.45;100.00;97708.28;6103785;19;20006;-75
2023/11/20 06:23:26;;;;;;;2.25;0.88;;;;;;;9.46;100.00;97698.03;6100380;19;20024;-75
2023/11/20 06:25:27;;;;;;;2.67;0.90;;;;;;;9.48;100.00;97718.53;6104190;19;20085;-75
2023/11/20 06:27:27;;;;;;;3.83;1.17;;;;;;;9.47;100.00;97699.59;6103418;19;20353;-75
2023/11/20 06:29:27;;;;;;;2.92;0.85;;;;;;;9.48;100.00;97713.00;6103994;19;20010;-75
2023/11/20 06:31:28;;;;;;;2.03;0.65;;;;;;;9.47;100.00;97721.69;6102508;19;20010;-75
2023/11/20 06:33:29;;;;;;;5.05;0.90;;;;;;;9.38;100.00;97715.75;6104446;19;20017;-75
2023/11/20 06:35:29;;;;;;;3.75;0.80;;;;;;;9.44;100.00;97728.78;6104190;19;20023;-74
2023/11/20 06:37:29;;;;;;;2.90;0.85;;;;;;;9.46;100.00;97728.38;6103000;19;20016;-75
2023/11/20 06:39:30;;;;;;;2.55;1.00;;;;;;;9.41;100.00;97726.78;6104609;19;20418;-75
2023/11/20 06:41:31;;;;;;;4.05;1.20;;;;;;;9.41;100.00;97731.50;6104603;19;19999;-75
2023/11/20 06:43:31;;;;;;;2.67;0.88;;;;;;;9.42;100.00;97731.13;6103928;19;20474;-75
2023/11/20 06:45:31;;;;;;;3.17;1.02;;;;;;;9.48;100.00;97723.25;6101972;19;20114;-75
2023/11/20 06:47:32;;;;;;;6.00;0.75;;;;;;;9.47;100.00;97732.72;6102608;19;20070;-75
2023/11/20 06:49:32;;;;;;;3.60;1.13;;;;;;;9.50;100.00;97731.94;6103821;19;20021;-75
2023/11/20 06:51:33;;;;;;;1.58;0.82;;;;;;;9.44;100.00;97734.31;6100701;19;20039;-75
2023/11/20 06:53:34;;;;;;;3.00;0.80;;;;;;;9.44;100.00;97733.53;6102705;19;20075;-75
2023/11/20 06:55:35;;;;;;;1.17;0.90;;;;;;;9.39;100.00;97737.44;6103978;19;20002;-75
2023/11/20 06:57:35;;;;;;;2.83;1.10;;;;;;;9.44;100.00;97741.81;6097567;19;20006;-75
2023/11/20 06:59:36;;;;;;;1.48;0.95;;;;;;;9.36;100.00;97740.97;6104048;19;20681;-75
2023/11/20 07:01:42;;;;;;;3.65;1.10;;;;;;;9.38;100.00;97743.34;6103534;19;20007;-75
2023/11/20 07:03:43;;;;;;;1.65;0.70;;;;;;;9.36;100.00;97746.50;6104028;19;20013;-75
2023/11/20 07:05:44;;;;;;;1.92;0.95;;;;;;;9.39;100.00;97754.00;6103471;19;20059;-75
2023/11/20 07:07:52;;;;;;;3.40;0.70;;;;;;;9.43;100.00;97754.00;6101861;19;20507;-75
2023/11/20 07:09:54;;;;;;;2.33;0.70;;;;;;;9.41;100.00;97751.63;6102699;19;20325;-75
2023/11/20 07:11:54;;;;;;;2.13;0.77;;;;;;;9.37;100.00;97759.13;6101869;19;20420;-75
2023/11/20 07:13:56;;;;;;;0.90;0.68;;;;;;;9.33;100.00;97758.28;6102673;19;20351;-75
2023/11/20 07:15:57;;;;;;;2.38;0.65;;;;;;;9.42;100.00;97764.25;6103183;19;20310;-75
2023/11/20 07:17:59;;;;;;;0.63;0.57;;;;;;;9.42;100.00;97767.00;6101247;19;20514;-75
2023/11/20 07:20:00;;;;;;;1.20;0.52;;;;;;;9.45;100.00;97765.47;6104076;19;20006;-75
2023/11/20 07:22:00;;;;;;;4.13;0.90;;;;;;;9.43;100.00;97765.03;6103265;19;20468;-75
2023/11/20 07:24:03;;;;;;;0.93;0.60;;;;;;;9.37;100.00;97770.16;6103179;19;20010;-75
2023/11/20 07:26:04;;;;;;;1.42;0.60;;;;;;;9.33;100.00;97768.56;6102908;19;20013;-75
2023/11/20 07:28:04;;;;;;;0.90;0.70;;;;;;;9.36;100.00;97765.81;6099142;19;19994;-75
2023/11/20 07:30:06;;;;;;;1.27;0.70;;;;;;;9.38;100.00;97759.91;6101873;19;20699;-75
2023/11/20 07:32:07;;;;;;;0.60;0.60;;;;;;;9.44;100.00;97759.16;6102156;19;20254;-75
2023/11/20 07:34:07;;;;;;;5.78;1.40;;;;;;;9.37;100.00;97745.31;6102229;19;20330;-75
2023/11/20 07:36:09;;;;;;;1.95;0.70;;;;;;;9.39;100.00;97767.00;6102476;19;19998;-75
2023/11/20 07:38:10;;;;;;;1.35;0.75;;;;;;;9.35;100.00;97746.88;6100321;19;20470;-75
2023/11/20 07:40:11;;;;;;;0.90;0.60;;;;;;;9.27;100.00;97754.34;6101850;19;20077;-75
2023/11/20 07:42:11;;;;;;;1.63;0.60;;;;;;;9.37;100.00;97741.75;6103470;19;20463;-74
2023/11/20 07:44:12;;;;;;;2.22;0.88;;;;;;;9.31;100.00;97738.56;6101190;19;20186;-75
2023/11/20 07:46:13;;;;;;;10.25;1.40;;;;;;;9.29;100.00;97741.72;6102122;19;20007;-75
2023/11/20 07:48:13;;;;;;;2.83;0.80;;;;;;;9.33;100.00;97744.50;6101194;19;20013;-75
2023/11/20 07:50:14;;;;;;;2.17;0.90;;;;;;;9.36;100.00;97751.22;6102942;19;20675;-75
2023/11/20 07:52:14;;;;;;;1.80;0.85;;;;;;;9.39;100.00;97745.72;6102303;19;20511;-75
2023/11/20 07:54:15;;;;;;;1.05;0.82;;;;;;;9.40;100.00;97752.81;6102063;19;20006;-75
2023/11/20 07:56:17;;;;;;;1.10;0.65;;;;;;;9.44;100.00;97747.31;6103187;19;20011;-75
2023/11/20 07:58:17;;;;;;;2.25;0.80;;;;;;;9.45;100.00;97751.66;6100286;19;20023;-75
2023/11/20 08:00:18;;;;;;;1.25;0.55;;;;;;;9.40;100.00;97752.81;6103325;19;20355;-76
2023/11/20 08:02:19;;;;;;;1.55;0.80;;;;;;;9.42;100.00;97753.22;6103675;19;20007;-75
2023/11/20 08:04:20;;;;;;;0.82;0.65;;;;;;;9.46;100.00;97750.47;6102559;19;20048;-75
2023/11/20 08:06:20;;;;;;;1.90;0.68;;;;;;;9.44;100.00;97759.16;6103055;19;20031;-75
2023/11/20 08:08:21;;;;;;;1.35;0.75;;;;;;;9.44;100.00;97755.59;6101593;19;20342;-75
2023/11/20 08:10:22;;;;;;;5.40;0.85;;;;;;;9.39;100.00;97754.00;6103594;19;20020;-75
2023/11/20 08:12:22;;;;;;;3.28;0.90;;;;;;;9.47;100.00;97752.84;6101786;19;20490;-75
2023/11/20 08:14:22;;;;;;;0.77;0.60;;;;;;;9.46;100.00;97764.28;6101785;19;20006;-75
2023/11/20 08:16:23;;;;;;;0.93;0.77;;;;;;;9.45;100.00;97757.97;6103100;19;20006;-75
2023/11/20 08:18:23;;;;;;;1.48;0.90;;;;;;;9.48;100.00;97757.19;6100852;19;19999;-75
2023/11/20 08:20:23;;;;;;;1.95;0.77;;;;;;;9.46;100.00;97759.56;6102602;19;20013;-75
2023/11/20 08:22:25;;;;;;;2.33;0.98;;;;;;;9.47;100.00;97761.13;6102537;19;20014;-75
2023/11/20 08:24:25;;;;;;;2.08;0.70;;;;;;;9.53;100.00;97767.09;6102510;19;20335;-74
2023/11/20 08:26:25;;;;;;;1.80;0.70;;;;;;;9.50;100.00;97765.88;6100615;19;20014;-75
2023/11/20 08:28:26;;;;;;;1.67;0.80;;;;;;;9.66;100.00;97767.50;6092800;19;20040;-75
2023/11/20 08:30:27;;;;;;;2.90;1.23;;;;;;;9.63;100.00;97760.81;6102279;19;20915;-75
2023/11/20 08:32:27;;;;;;;6.53;3.30;;;;;;;9.65;100.00;97768.69;6102682;19;20481;-74
2023/11/20 08:34:28;;;;;;;2.83;1.40;;;;;;;9.63;100.00;97769.09;6101747;19;20074;-75
2023/11/20 08:36:29;;;;;;;1.05;0.70;;;;;;;9.61;100.00;97770.66;6100493;19;20264;-75
2023/11/20 08:38:29;;;;;;;0.70;0.70;;;;;;;9.61;100.00;97774.22;6098925;19;20007;-75
2023/11/20 08:40:29;;;;;;;5.70;0.82;;;;;;;9.57;100.00;97781.69;6099648;19;20766;-75
2023/11/20 08:42:30;;;;;;;1.30;0.70;;;;;;;9.63;100.00;97780.13;6098725;19;20010;-75
2023/11/20 08:44:30;;;;;;;1.85;0.88;;;;;;;9.67;100.00;97785.66;6102280;19;20010;-75
2023/11/20 08:46:31;;;;;;;2.42;0.80;;;;;;;9.65;100.00;97779.75;6099739;19;20010;-76
2023/11/20 08:48:31;;;;;;;2.17;1.15;;;;;;;9.67;100.00;97778.16;6099836;19;20368;-75
2023/11/20 08:50:32;;;;;;;2.65;1.17;;;;;;;9.61;100.00;97782.50;6101949;19;20014;-75
2023/11/20 08:52:32;;;;;;;2.60;0.70;;;;;;;9.61;100.00;97778.94;6101290;19;20007;-75
2023/11/20 08:54:33;;;;;;;2.58;0.55;;;;;;;9.60;100.00;97785.63;6100430;19;20018;-75
2023/11/20 08:56:33;;;;;;;0.45;0.45;;;;;;;9.62;100.00;97788.81;6101055;19;20010;-75
2023/11/20 08:58:33;;;;;;;1.35;0.80;;;;;;;9.46;100.00;97789.94;6100266;19;20011;-75
2023/11/20 09:00:35;;;;;;;0.50;0.50;;;;;;;9.38;100.00;97788.31;6101719;19;20377;-76
2023/11/20 09:02:35;;;;;;;0.60;0.60;;;;;;;9.33;100.00;97787.88;6101166;19;20326;-75
2023/11/20 09:04:35;;;;;;;3.10;0.95;;;;;;;9.15;100.00;97793.28;6101653;19;20486;-76
2023/11/20 09:06:35;;;;;;;0.60;0.60;;;;;;;9.12;100.00;97794.06;6100404;19;20318;-76
2023/11/20 09:08:36;;;;;;;2.42;0.60;;;;;;;9.06;100.00;97793.63;6099716;19;20010;-76
2023/11/20 09:10:36;;;;;;;0.93;0.70;;;;;;;9.00;100.00;97795.97;6101428;19;20014;-76
2023/11/20 09:12:37;;;;;;;1.00;0.68;;;;;;;8.98;100.00;97794.78;6100698;19;20077;-76
2023/11/20 09:14:37;;;;;;;1.65;0.93;;;;;;;8.99;100.00;97786.09;6100215;19;20393;-76
2023/11/20 09:16:38;;;;;;;2.20;1.40;;;;;;;8.99;100.00;97786.09;6100249;19;20547;-75
2023/11/20 09:18:40;;;;;;;1.33;1.02;;;;;;;8.92;100.00;97785.25;6098493;19;20238;-76
2023/11/20 09:20:40;;;;;;;1.85;0.90;;;;;;;8.90;100.00;97780.13;6100912;19;20010;-76
2023/11/20 09:22:41;;;;;;;2.72;1.20;;;;;;;8.88;100.00;97776.97;6099749;19;20093;-76
2023/11/20 09:24:41;;;;;;;3.67;1.67;;;;;;;8.89;100.00;97781.31;6101431;19;20026;-75
2023/11/20 09:26:42;;;;;;;4.03;1.17;;;;;;;8.86;100.00;97765.53;6097740;19;20745;-76
2023/11/20 09:28:42;;;;;;;1.92;0.95;;;;;;;8.90;100.00;97768.31;6092826;19;20014;-76